sensor_id;sensor_type;location;lat;lon;timestamp;P1;durP1;ratioP1;P2;durP2;ratioP2
10667;SDS011;5382;42.136;24.796;2022-11-14T00:00:40;26.50;;;16.08;;
10667;SDS011;5382;42.136;24.796;2022-11-14T00:03:09;26.73;;;16.48;;
10667;SDS011;5382;42.136;24.796;2022-11-14T00:05:40;25.83;;;16.15;;
10667;SDS011;5382;42.136;24.796;2022-11-14T00:08:12;24.15;;;14.40;;
10667;SDS011;5382;42.136;24.796;2022-11-14T00:10:41;23.27;;;15.50;;
10667;SDS011;5382;42.136;24.796;2022-11-14T00:13:08;23.25;;;14.80;;
10667;SDS011;5382;42.136;24.796;2022-11-14T00:15:34;26.67;;;15.95;;
10667;SDS011;5382;42.136;24.796;2022-11-14T00:18:03;27.98;;;15.50;;
10667;SDS011;5382;42.136;24.796;2022-11-14T00:20:30;26.23;;;15.63;;
10667;SDS011;5382;42.136;24.796;2022-11-14T00:22:57;23.95;;;15.25;;
10667;SDS011;5382;42.136;24.796;2022-11-14T00:25:24;27.27;;;16.25;;
10667;SDS011;5382;42.136;24.796;2022-11-14T00:27:51;22.80;;;15.30;;
10667;SDS011;5382;42.136;24.796;2022-11-14T00:30:17;23.58;;;16.20;;
10667;SDS011;5382;42.136;24.796;2022-11-14T00:32:44;26.02;;;16.58;;
10667;SDS011;5382;42.136;24.796;2022-11-14T00:35:12;25.13;;;14.80;;
10667;SDS011;5382;42.136;24.796;2022-11-14T00:37:39;23.80;;;15.63;;
10667;SDS011;5382;42.136;24.796;2022-11-14T00:40:07;24.95;;;14.95;;
10667;SDS011;5382;42.136;24.796;2022-11-14T00:42:34;24.33;;;15.05;;
10667;SDS011;5382;42.136;24.796;2022-11-14T00:45:01;23.33;;;15.68;;
10667;SDS011;5382;42.136;24.796;2022-11-14T00:47:27;23.05;;;16.42;;
10667;SDS011;5382;42.136;24.796;2022-11-14T00:49:54;25.98;;;15.80;;
10667;SDS011;5382;42.136;24.796;2022-11-14T00:52:22;25.42;;;15.88;;
10667;SDS011;5382;42.136;24.796;2022-11-14T00:54:49;24.27;;;15.10;;
10667;SDS011;5382;42.136;24.796;2022-11-14T00:57:16;24.25;;;15.27;;
10667;SDS011;5382;42.136;24.796;2022-11-14T00:59:43;22.65;;;14.88;;
10667;SDS011;5382;42.136;24.796;2022-11-14T01:02:09;24.83;;;15.90;;
10667;SDS011;5382;42.136;24.796;2022-11-14T01:04:36;27.02;;;14.95;;
10667;SDS011;5382;42.136;24.796;2022-11-14T01:07:03;25.85;;;14.73;;
10667;SDS011;5382;42.136;24.796;2022-11-14T01:09:31;22.35;;;14.85;;
10667;SDS011;5382;42.136;24.796;2022-11-14T01:11:58;24.77;;;15.07;;
10667;SDS011;5382;42.136;24.796;2022-11-14T01:14:25;26.67;;;16.50;;
10667;SDS011;5382;42.136;24.796;2022-11-14T01:16:51;24.15;;;15.50;;
10667;SDS011;5382;42.136;24.796;2022-11-14T01:19:18;27.23;;;16.40;;
10667;SDS011;5382;42.136;24.796;2022-11-14T01:21:45;27.50;;;17.70;;
10667;SDS011;5382;42.136;24.796;2022-11-14T01:24:12;30.63;;;16.70;;
10667;SDS011;5382;42.136;24.796;2022-11-14T01:26:40;23.67;;;14.80;;
10667;SDS011;5382;42.136;24.796;2022-11-14T01:29:07;24.75;;;15.63;;
10667;SDS011;5382;42.136;24.796;2022-11-14T01:31:33;26.58;;;15.38;;
10667;SDS011;5382;42.136;24.796;2022-11-14T01:34:00;22.65;;;15.50;;
10667;SDS011;5382;42.136;24.796;2022-11-14T01:36:27;25.27;;;15.90;;
10667;SDS011;5382;42.136;24.796;2022-11-14T01:38:54;27.85;;;16.83;;
10667;SDS011;5382;42.136;24.796;2022-11-14T01:41:21;24.17;;;14.98;;
10667;SDS011;5382;42.136;24.796;2022-11-14T01:43:49;22.95;;;15.18;;
10667;SDS011;5382;42.136;24.796;2022-11-14T01:46:17;26.20;;;15.80;;
10667;SDS011;5382;42.136;24.796;2022-11-14T01:48:49;26.58;;;15.00;;
10667;SDS011;5382;42.136;24.796;2022-11-14T01:51:22;22.55;;;14.23;;
10667;SDS011;5382;42.136;24.796;2022-11-14T01:53:54;25.17;;;14.50;;
10667;SDS011;5382;42.136;24.796;2022-11-14T01:56:25;26.48;;;15.43;;
10667;SDS011;5382;42.136;24.796;2022-11-14T01:58:57;22.10;;;14.35;;
10667;SDS011;5382;42.136;24.796;2022-11-14T02:01:28;23.10;;;13.77;;
10667;SDS011;5382;42.136;24.796;2022-11-14T02:04:00;22.38;;;13.55;;
10667;SDS011;5382;42.136;24.796;2022-11-14T02:06:29;22.33;;;14.05;;
10667;SDS011;5382;42.136;24.796;2022-11-14T02:08:57;21.73;;;14.18;;
10667;SDS011;5382;42.136;24.796;2022-11-14T02:11:27;23.60;;;14.52;;
10667;SDS011;5382;42.136;24.796;2022-11-14T02:13:58;21.73;;;14.05;;
10667;SDS011;5382;42.136;24.796;2022-11-14T02:16:25;23.05;;;15.10;;
10667;SDS011;5382;42.136;24.796;2022-11-14T02:18:52;24.55;;;15.73;;
10667;SDS011;5382;42.136;24.796;2022-11-14T02:21:20;23.30;;;14.68;;
10667;SDS011;5382;42.136;24.796;2022-11-14T02:23:47;24.42;;;14.98;;
10667;SDS011;5382;42.136;24.796;2022-11-14T02:26:15;22.88;;;14.35;;
10667;SDS011;5382;42.136;24.796;2022-11-14T02:28:43;23.95;;;14.00;;
10667;SDS011;5382;42.136;24.796;2022-11-14T02:31:10;22.33;;;13.60;;
10667;SDS011;5382;42.136;24.796;2022-11-14T02:33:37;24.48;;;14.52;;
10667;SDS011;5382;42.136;24.796;2022-11-14T02:36:04;19.27;;;13.65;;
10667;SDS011;5382;42.136;24.796;2022-11-14T02:38:33;19.30;;;13.40;;
10667;SDS011;5382;42.136;24.796;2022-11-14T02:41:00;25.30;;;15.15;;
10667;SDS011;5382;42.136;24.796;2022-11-14T02:43:27;22.02;;;13.10;;
10667;SDS011;5382;42.136;24.796;2022-11-14T02:45:54;20.27;;;13.45;;
10667;SDS011;5382;42.136;24.796;2022-11-14T02:48:21;19.75;;;12.73;;
10667;SDS011;5382;42.136;24.796;2022-11-14T02:50:47;22.00;;;13.32;;
10667;SDS011;5382;42.136;24.796;2022-11-14T02:53:14;21.30;;;13.43;;
10667;SDS011;5382;42.136;24.796;2022-11-14T02:55:43;20.65;;;11.93;;
10667;SDS011;5382;42.136;24.796;2022-11-14T02:58:09;18.27;;;13.52;;
10667;SDS011;5382;42.136;24.796;2022-11-14T03:00:36;20.25;;;13.40;;
10667;SDS011;5382;42.136;24.796;2022-11-14T03:03:03;21.73;;;14.23;;
10667;SDS011;5382;42.136;24.796;2022-11-14T03:05:30;19.25;;;12.85;;
10667;SDS011;5382;42.136;24.796;2022-11-14T03:07:57;15.65;;;11.57;;
10667;SDS011;5382;42.136;24.796;2022-11-14T03:10:23;15.93;;;11.75;;
10667;SDS011;5382;42.136;24.796;2022-11-14T03:12:53;16.35;;;11.43;;
10667;SDS011;5382;42.136;24.796;2022-11-14T03:15:20;14.27;;;10.77;;
10667;SDS011;5382;42.136;24.796;2022-11-14T03:17:47;11.13;;;8.73;;
10667;SDS011;5382;42.136;24.796;2022-11-14T03:20:14;11.93;;;8.27;;
10667;SDS011;5382;42.136;24.796;2022-11-14T03:22:41;12.38;;;8.32;;
10667;SDS011;5382;42.136;24.796;2022-11-14T03:25:08;10.77;;;8.43;;
10667;SDS011;5382;42.136;24.796;2022-11-14T03:27:35;11.80;;;8.80;;
10667;SDS011;5382;42.136;24.796;2022-11-14T03:30:03;12.48;;;9.48;;
10667;SDS011;5382;42.136;24.796;2022-11-14T03:32:30;14.50;;;12.82;;
10667;SDS011;5382;42.136;24.796;2022-11-14T03:34:57;13.95;;;8.07;;
10667;SDS011;5382;42.136;24.796;2022-11-14T03:37:24;11.32;;;8.55;;
10667;SDS011;5382;42.136;24.796;2022-11-14T03:39:51;15.55;;;8.80;;
10667;SDS011;5382;42.136;24.796;2022-11-14T03:42:17;14.27;;;7.93;;
10667;SDS011;5382;42.136;24.796;2022-11-14T03:44:44;13.30;;;8.70;;
10667;SDS011;5382;42.136;24.796;2022-11-14T03:47:12;10.93;;;8.40;;
10667;SDS011;5382;42.136;24.796;2022-11-14T03:49:39;12.68;;;8.20;;
10667;SDS011;5382;42.136;24.796;2022-11-14T03:52:06;12.65;;;9.05;;
10667;SDS011;5382;42.136;24.796;2022-11-14T03:54:33;15.85;;;9.23;;
10667;SDS011;5382;42.136;24.796;2022-11-14T03:56:59;12.50;;;8.73;;
10667;SDS011;5382;42.136;24.796;2022-11-14T03:59:26;12.85;;;9.05;;
10667;SDS011;5382;42.136;24.796;2022-11-14T04:01:53;13.07;;;9.40;;
10667;SDS011;5382;42.136;24.796;2022-11-14T04:04:21;14.05;;;9.80;;
10667;SDS011;5382;42.136;24.796;2022-11-14T04:06:48;13.32;;;9.18;;
10667;SDS011;5382;42.136;24.796;2022-11-14T04:09:15;15.88;;;9.90;;
10667;SDS011;5382;42.136;24.796;2022-11-14T04:11:42;12.52;;;9.07;;
10667;SDS011;5382;42.136;24.796;2022-11-14T04:14:08;17.98;;;14.75;;
10667;SDS011;5382;42.136;24.796;2022-11-14T04:16:36;20.80;;;16.05;;
10667;SDS011;5382;42.136;24.796;2022-11-14T04:19:02;15.75;;;11.32;;
10667;SDS011;5382;42.136;24.796;2022-11-14T04:21:30;18.13;;;12.35;;
10667;SDS011;5382;42.136;24.796;2022-11-14T04:23:57;22.60;;;12.40;;
10667;SDS011;5382;42.136;24.796;2022-11-14T04:26:24;22.13;;;13.35;;
10667;SDS011;5382;42.136;24.796;2022-11-14T04:28:51;23.25;;;12.23;;
10667;SDS011;5382;42.136;24.796;2022-11-14T04:31:18;18.95;;;11.38;;
10667;SDS011;5382;42.136;24.796;2022-11-14T04:33:44;18.52;;;10.30;;
10667;SDS011;5382;42.136;24.796;2022-11-14T04:36:11;18.45;;;15.32;;
10667;SDS011;5382;42.136;24.796;2022-11-14T04:38:39;15.40;;;13.15;;
10667;SDS011;5382;42.136;24.796;2022-11-14T04:41:06;15.13;;;8.48;;
10667;SDS011;5382;42.136;24.796;2022-11-14T04:43:33;15.32;;;12.40;;
10667;SDS011;5382;42.136;24.796;2022-11-14T04:46:00;20.58;;;15.10;;
10667;SDS011;5382;42.136;24.796;2022-11-14T04:48:26;20.58;;;16.17;;
10667;SDS011;5382;42.136;24.796;2022-11-14T04:50:53;19.90;;;16.52;;
10667;SDS011;5382;42.136;24.796;2022-11-14T04:53:20;22.15;;;15.80;;
10667;SDS011;5382;42.136;24.796;2022-11-14T04:55:48;15.13;;;9.55;;
10667;SDS011;5382;42.136;24.796;2022-11-14T04:58:15;12.48;;;8.85;;
10667;SDS011;5382;42.136;24.796;2022-11-14T05:00:42;14.48;;;12.80;;
10667;SDS011;5382;42.136;24.796;2022-11-14T05:03:08;13.15;;;8.23;;
10667;SDS011;5382;42.136;24.796;2022-11-14T05:05:35;17.02;;;7.82;;
10667;SDS011;5382;42.136;24.796;2022-11-14T05:08:02;14.55;;;8.93;;
10667;SDS011;5382;42.136;24.796;2022-11-14T05:10:29;10.40;;;8.57;;
10667;SDS011;5382;42.136;24.796;2022-11-14T05:12:57;11.15;;;8.32;;
10667;SDS011;5382;42.136;24.796;2022-11-14T05:15:24;11.10;;;8.45;;
10667;SDS011;5382;42.136;24.796;2022-11-14T05:17:51;9.27;;;6.65;;
10667;SDS011;5382;42.136;24.796;2022-11-14T05:20:17;10.38;;;8.38;;
10667;SDS011;5382;42.136;24.796;2022-11-14T05:22:44;11.93;;;8.43;;
10667;SDS011;5382;42.136;24.796;2022-11-14T05:25:11;9.93;;;7.95;;
10667;SDS011;5382;42.136;24.796;2022-11-14T05:27:38;9.25;;;7.78;;
10667;SDS011;5382;42.136;24.796;2022-11-14T05:30:07;13.05;;;7.47;;
10667;SDS011;5382;42.136;24.796;2022-11-14T05:32:34;12.57;;;7.30;;
10667;SDS011;5382;42.136;24.796;2022-11-14T05:35:01;14.18;;;10.63;;
10667;SDS011;5382;42.136;24.796;2022-11-14T05:37:28;11.68;;;7.72;;
10667;SDS011;5382;42.136;24.796;2022-11-14T05:39:55;17.73;;;11.50;;
10667;SDS011;5382;42.136;24.796;2022-11-14T05:42:22;14.88;;;8.05;;
10667;SDS011;5382;42.136;24.796;2022-11-14T05:44:49;15.68;;;7.60;;
10667;SDS011;5382;42.136;24.796;2022-11-14T05:47:17;9.32;;;6.90;;
10667;SDS011;5382;42.136;24.796;2022-11-14T05:49:44;11.30;;;8.13;;
10667;SDS011;5382;42.136;24.796;2022-11-14T05:52:10;13.48;;;11.60;;
10667;SDS011;5382;42.136;24.796;2022-11-14T05:54:38;10.90;;;7.88;;
10667;SDS011;5382;42.136;24.796;2022-11-14T05:57:04;18.65;;;8.27;;
10667;SDS011;5382;42.136;24.796;2022-11-14T05:59:31;18.40;;;14.25;;
10667;SDS011;5382;42.136;24.796;2022-11-14T06:01:58;20.45;;;16.38;;
10667;SDS011;5382;42.136;24.796;2022-11-14T06:04:26;25.73;;;17.70;;
10667;SDS011;5382;42.136;24.796;2022-11-14T06:06:53;25.63;;;20.35;;
10667;SDS011;5382;42.136;24.796;2022-11-14T06:09:20;22.20;;;18.83;;
10667;SDS011;5382;42.136;24.796;2022-11-14T06:11:47;19.77;;;13.27;;
10667;SDS011;5382;42.136;24.796;2022-11-14T06:14:13;19.55;;;13.35;;
10667;SDS011;5382;42.136;24.796;2022-11-14T06:16:40;18.23;;;11.43;;
10667;SDS011;5382;42.136;24.796;2022-11-14T06:19:07;17.58;;;12.27;;
10667;SDS011;5382;42.136;24.796;2022-11-14T06:21:35;24.08;;;15.30;;
10667;SDS011;5382;42.136;24.796;2022-11-14T06:24:02;17.52;;;12.40;;
10667;SDS011;5382;42.136;24.796;2022-11-14T06:26:29;20.30;;;13.75;;
10667;SDS011;5382;42.136;24.796;2022-11-14T06:28:57;20.40;;;11.98;;
10667;SDS011;5382;42.136;24.796;2022-11-14T06:31:25;26.77;;;16.15;;
10667;SDS011;5382;42.136;24.796;2022-11-14T06:33:52;26.83;;;19.85;;
10667;SDS011;5382;42.136;24.796;2022-11-14T06:36:19;18.92;;;12.50;;
10667;SDS011;5382;42.136;24.796;2022-11-14T06:38:48;19.00;;;11.13;;
10667;SDS011;5382;42.136;24.796;2022-11-14T06:41:16;15.55;;;9.25;;
10667;SDS011;5382;42.136;24.796;2022-11-14T06:43:44;28.65;;;16.48;;
10667;SDS011;5382;42.136;24.796;2022-11-14T06:46:12;15.52;;;9.27;;
10667;SDS011;5382;42.136;24.796;2022-11-14T06:48:41;14.68;;;10.23;;
10667;SDS011;5382;42.136;24.796;2022-11-14T06:51:09;12.90;;;8.60;;
10667;SDS011;5382;42.136;24.796;2022-11-14T06:53:36;21.42;;;10.75;;
10667;SDS011;5382;42.136;24.796;2022-11-14T06:56:06;14.98;;;9.90;;
10667;SDS011;5382;42.136;24.796;2022-11-14T06:58:34;26.13;;;16.58;;
10667;SDS011;5382;42.136;24.796;2022-11-14T07:01:03;16.42;;;10.52;;
10667;SDS011;5382;42.136;24.796;2022-11-14T07:03:31;15.50;;;10.63;;
10667;SDS011;5382;42.136;24.796;2022-11-14T07:05:58;21.73;;;12.85;;
10667;SDS011;5382;42.136;24.796;2022-11-14T07:08:26;14.18;;;9.90;;
10667;SDS011;5382;42.136;24.796;2022-11-14T07:10:53;16.77;;;11.57;;
10667;SDS011;5382;42.136;24.796;2022-11-14T07:13:27;17.77;;;10.52;;
10667;SDS011;5382;42.136;24.796;2022-11-14T07:15:53;24.80;;;12.00;;
10667;SDS011;5382;42.136;24.796;2022-11-14T07:18:20;19.90;;;13.73;;
10667;SDS011;5382;42.136;24.796;2022-11-14T07:20:47;20.42;;;13.93;;
10667;SDS011;5382;42.136;24.796;2022-11-14T07:23:14;32.25;;;14.02;;
10667;SDS011;5382;42.136;24.796;2022-11-14T07:25:41;25.90;;;14.18;;
10667;SDS011;5382;42.136;24.796;2022-11-14T07:28:08;32.00;;;15.18;;
10667;SDS011;5382;42.136;24.796;2022-11-14T07:30:36;25.02;;;15.10;;
10667;SDS011;5382;42.136;24.796;2022-11-14T07:33:02;26.02;;;15.20;;
10667;SDS011;5382;42.136;24.796;2022-11-14T07:35:29;24.80;;;14.77;;
10667;SDS011;5382;42.136;24.796;2022-11-14T07:38:02;23.95;;;15.40;;
10667;SDS011;5382;42.136;24.796;2022-11-14T07:40:29;28.05;;;16.45;;
10667;SDS011;5382;42.136;24.796;2022-11-14T07:42:56;40.28;;;23.25;;
10667;SDS011;5382;42.136;24.796;2022-11-14T07:45:24;35.25;;;19.92;;
10667;SDS011;5382;42.136;24.796;2022-11-14T07:47:55;30.60;;;19.05;;
10667;SDS011;5382;42.136;24.796;2022-11-14T07:50:22;27.27;;;17.58;;
10667;SDS011;5382;42.136;24.796;2022-11-14T07:52:49;33.05;;;17.85;;
10667;SDS011;5382;42.136;24.796;2022-11-14T07:55:17;35.72;;;17.15;;
10667;SDS011;5382;42.136;24.796;2022-11-14T07:57:46;29.70;;;15.77;;
10667;SDS011;5382;42.136;24.796;2022-11-14T08:00:13;27.10;;;16.88;;
10667;SDS011;5382;42.136;24.796;2022-11-14T08:02:41;24.17;;;15.70;;
10667;SDS011;5382;42.136;24.796;2022-11-14T08:05:09;28.75;;;17.15;;
10667;SDS011;5382;42.136;24.796;2022-11-14T08:07:35;29.08;;;16.70;;
10667;SDS011;5382;42.136;24.796;2022-11-14T08:10:03;29.20;;;16.05;;
10667;SDS011;5382;42.136;24.796;2022-11-14T08:12:33;27.02;;;17.15;;
10667;SDS011;5382;42.136;24.796;2022-11-14T08:14:59;24.48;;;16.10;;
10667;SDS011;5382;42.136;24.796;2022-11-14T08:17:26;28.67;;;16.60;;
10667;SDS011;5382;42.136;24.796;2022-11-14T08:19:53;33.95;;;16.50;;
10667;SDS011;5382;42.136;24.796;2022-11-14T08:22:21;35.85;;;17.40;;
10667;SDS011;5382;42.136;24.796;2022-11-14T08:24:48;26.73;;;17.33;;
10667;SDS011;5382;42.136;24.796;2022-11-14T08:27:15;35.47;;;19.73;;
10667;SDS011;5382;42.136;24.796;2022-11-14T08:29:42;38.28;;;19.92;;
10667;SDS011;5382;42.136;24.796;2022-11-14T08:32:08;29.83;;;18.67;;
10667;SDS011;5382;42.136;24.796;2022-11-14T08:34:36;33.60;;;19.15;;
10667;SDS011;5382;42.136;24.796;2022-11-14T08:37:02;30.83;;;19.38;;
10667;SDS011;5382;42.136;24.796;2022-11-14T08:39:31;29.83;;;17.38;;
10667;SDS011;5382;42.136;24.796;2022-11-14T08:41:57;33.47;;;17.63;;
10667;SDS011;5382;42.136;24.796;2022-11-14T08:44:24;30.02;;;18.30;;
10667;SDS011;5382;42.136;24.796;2022-11-14T08:46:51;25.52;;;17.42;;
10667;SDS011;5382;42.136;24.796;2022-11-14T08:49:18;28.98;;;17.23;;
10667;SDS011;5382;42.136;24.796;2022-11-14T08:51:45;26.27;;;17.88;;
10667;SDS011;5382;42.136;24.796;2022-11-14T08:54:11;33.08;;;17.63;;
10667;SDS011;5382;42.136;24.796;2022-11-14T08:56:40;24.10;;;16.30;;
10667;SDS011;5382;42.136;24.796;2022-11-14T08:59:06;26.42;;;16.88;;
10667;SDS011;5382;42.136;24.796;2022-11-14T09:01:33;24.00;;;17.35;;
10667;SDS011;5382;42.136;24.796;2022-11-14T09:04:00;25.40;;;17.42;;
10667;SDS011;5382;42.136;24.796;2022-11-14T09:06:27;25.20;;;17.17;;
10667;SDS011;5382;42.136;24.796;2022-11-14T09:08:54;25.65;;;16.77;;
10667;SDS011;5382;42.136;24.796;2022-11-14T09:11:21;24.75;;;16.77;;
10667;SDS011;5382;42.136;24.796;2022-11-14T09:13:49;26.98;;;16.33;;
10667;SDS011;5382;42.136;24.796;2022-11-14T09:16:16;24.75;;;16.55;;
10667;SDS011;5382;42.136;24.796;2022-11-14T09:18:42;24.88;;;17.23;;
10667;SDS011;5382;42.136;24.796;2022-11-14T09:21:11;32.70;;;19.10;;
10667;SDS011;5382;42.136;24.796;2022-11-14T09:23:38;29.50;;;20.52;;
10667;SDS011;5382;42.136;24.796;2022-11-14T09:26:05;25.45;;;20.55;;
10667;SDS011;5382;42.136;24.796;2022-11-14T09:28:33;27.52;;;18.60;;
10667;SDS011;5382;42.136;24.796;2022-11-14T09:31:02;29.77;;;20.98;;
10667;SDS011;5382;42.136;24.796;2022-11-14T09:33:30;29.20;;;20.98;;
10667;SDS011;5382;42.136;24.796;2022-11-14T09:35:57;29.30;;;21.42;;
10667;SDS011;5382;42.136;24.796;2022-11-14T09:38:25;25.77;;;15.95;;
10667;SDS011;5382;42.136;24.796;2022-11-14T09:40:56;23.80;;;19.17;;
10667;SDS011;5382;42.136;24.796;2022-11-14T09:43:34;25.63;;;16.33;;
10667;SDS011;5382;42.136;24.796;2022-11-14T09:46:15;26.58;;;19.15;;
10667;SDS011;5382;42.136;24.796;2022-11-14T09:48:46;24.00;;;18.85;;
10667;SDS011;5382;42.136;24.796;2022-11-14T09:51:14;24.30;;;15.48;;
10667;SDS011;5382;42.136;24.796;2022-11-14T09:53:45;18.77;;;16.30;;
10667;SDS011;5382;42.136;24.796;2022-11-14T09:56:18;21.65;;;17.55;;
10667;SDS011;5382;42.136;24.796;2022-11-14T09:58:48;19.83;;;17.15;;
10667;SDS011;5382;42.136;24.796;2022-11-14T10:01:19;28.17;;;17.17;;
10667;SDS011;5382;42.136;24.796;2022-11-14T10:03:58;18.67;;;12.85;;
10667;SDS011;5382;42.136;24.796;2022-11-14T10:06:34;22.75;;;16.02;;
10667;SDS011;5382;42.136;24.796;2022-11-14T10:09:16;20.02;;;15.32;;
10667;SDS011;5382;42.136;24.796;2022-11-14T10:12:10;21.02;;;15.35;;
10667;SDS011;5382;42.136;24.796;2022-11-14T10:14:50;22.08;;;16.48;;
10667;SDS011;5382;42.136;24.796;2022-11-14T10:17:33;17.65;;;15.23;;
10667;SDS011;5382;42.136;24.796;2022-11-14T10:20:16;17.85;;;15.95;;
10667;SDS011;5382;42.136;24.796;2022-11-14T10:22:56;20.50;;;16.63;;
10667;SDS011;5382;42.136;24.796;2022-11-14T10:25:34;18.02;;;15.98;;
10667;SDS011;5382;42.136;24.796;2022-11-14T10:28:20;18.92;;;16.00;;
10667;SDS011;5382;42.136;24.796;2022-11-14T10:31:06;21.65;;;15.93;;
10667;SDS011;5382;42.136;24.796;2022-11-14T10:33:47;17.08;;;13.50;;
10667;SDS011;5382;42.136;24.796;2022-11-14T10:36:26;19.40;;;16.02;;
10667;SDS011;5382;42.136;24.796;2022-11-14T10:39:08;16.02;;;14.30;;
10667;SDS011;5382;42.136;24.796;2022-11-14T10:41:41;18.98;;;15.40;;
10667;SDS011;5382;42.136;24.796;2022-11-14T10:44:10;18.60;;;12.13;;
10667;SDS011;5382;42.136;24.796;2022-11-14T10:46:44;17.42;;;14.75;;
10667;SDS011;5382;42.136;24.796;2022-11-14T10:49:16;17.45;;;15.25;;
10667;SDS011;5382;42.136;24.796;2022-11-14T10:51:46;16.52;;;14.82;;
10667;SDS011;5382;42.136;24.796;2022-11-14T10:54:18;17.70;;;15.23;;
10667;SDS011;5382;42.136;24.796;2022-11-14T10:56:51;17.90;;;13.70;;
10667;SDS011;5382;42.136;24.796;2022-11-14T10:59:19;16.92;;;15.15;;
10667;SDS011;5382;42.136;24.796;2022-11-14T11:01:52;15.70;;;14.10;;
10667;SDS011;5382;42.136;24.796;2022-11-14T11:04:23;24.25;;;15.55;;
10667;SDS011;5382;42.136;24.796;2022-11-14T11:06:53;15.98;;;14.35;;
10667;SDS011;5382;42.136;24.796;2022-11-14T11:09:23;17.02;;;15.23;;
10667;SDS011;5382;42.136;24.796;2022-11-14T11:12:13;16.92;;;14.90;;
10667;SDS011;5382;42.136;24.796;2022-11-14T11:14:42;16.08;;;14.35;;
10667;SDS011;5382;42.136;24.796;2022-11-14T11:17:14;15.88;;;14.27;;
10667;SDS011;5382;42.136;24.796;2022-11-14T11:19:45;14.93;;;13.20;;
10667;SDS011;5382;42.136;24.796;2022-11-14T11:22:23;15.70;;;14.20;;
10667;SDS011;5382;42.136;24.796;2022-11-14T11:24:53;15.23;;;13.73;;
10667;SDS011;5382;42.136;24.796;2022-11-14T11:27:21;16.17;;;14.70;;
10667;SDS011;5382;42.136;24.796;2022-11-14T11:30:00;15.93;;;14.43;;
10667;SDS011;5382;42.136;24.796;2022-11-14T11:32:32;16.10;;;14.60;;
10667;SDS011;5382;42.136;24.796;2022-11-14T11:35:01;15.20;;;13.70;;
10667;SDS011;5382;42.136;24.796;2022-11-14T11:37:38;15.82;;;14.32;;
10667;SDS011;5382;42.136;24.796;2022-11-14T11:40:12;17.52;;;15.73;;
10667;SDS011;5382;42.136;24.796;2022-11-14T11:42:44;16.63;;;14.80;;
10667;SDS011;5382;42.136;24.796;2022-11-14T11:45:15;16.63;;;14.93;;
10667;SDS011;5382;42.136;24.796;2022-11-14T11:47:45;15.68;;;14.13;;
10667;SDS011;5382;42.136;24.796;2022-11-14T11:50:19;15.52;;;14.00;;
10667;SDS011;5382;42.136;24.796;2022-11-14T11:52:50;15.57;;;14.05;;
10667;SDS011;5382;42.136;24.796;2022-11-14T11:55:24;16.23;;;14.63;;
10667;SDS011;5382;42.136;24.796;2022-11-14T11:57:56;16.10;;;14.55;;
10667;SDS011;5382;42.136;24.796;2022-11-14T12:00:28;14.85;;;13.50;;
10667;SDS011;5382;42.136;24.796;2022-11-14T12:02:55;15.55;;;14.05;;
10667;SDS011;5382;42.136;24.796;2022-11-14T12:05:26;15.30;;;13.90;;
10667;SDS011;5382;42.136;24.796;2022-11-14T12:08:00;15.38;;;13.77;;
10667;SDS011;5382;42.136;24.796;2022-11-14T12:10:29;17.33;;;13.95;;
10667;SDS011;5382;42.136;24.796;2022-11-14T12:13:13;15.88;;;14.35;;
10667;SDS011;5382;42.136;24.796;2022-11-14T12:15:54;16.25;;;14.68;;
10667;SDS011;5382;42.136;24.796;2022-11-14T12:18:34;15.63;;;13.98;;
10667;SDS011;5382;42.136;24.796;2022-11-14T12:21:18;16.25;;;14.52;;
10667;SDS011;5382;42.136;24.796;2022-11-14T12:27:10;15.38;;;13.77;;
10667;SDS011;5382;42.136;24.796;2022-11-14T12:29:57;17.08;;;15.32;;
10667;SDS011;5382;42.136;24.796;2022-11-14T12:32:45;16.08;;;14.52;;
10667;SDS011;5382;42.136;24.796;2022-11-14T12:35:17;15.90;;;14.27;;
10667;SDS011;5382;42.136;24.796;2022-11-14T12:37:49;17.02;;;15.43;;
10667;SDS011;5382;42.136;24.796;2022-11-14T12:40:25;15.18;;;13.88;;
10667;SDS011;5382;42.136;24.796;2022-11-14T12:42:56;15.98;;;14.27;;
10667;SDS011;5382;42.136;24.796;2022-11-14T12:48:22;14.95;;;13.23;;
10667;SDS011;5382;42.136;24.796;2022-11-14T12:50:59;14.75;;;13.35;;
10667;SDS011;5382;42.136;24.796;2022-11-14T12:53:43;15.55;;;14.13;;
10667;SDS011;5382;42.136;24.796;2022-11-14T12:56:23;14.40;;;13.10;;
10667;SDS011;5382;42.136;24.796;2022-11-14T12:59:32;15.65;;;13.98;;
10667;SDS011;5382;42.136;24.796;2022-11-14T13:05:20;15.52;;;14.02;;
10667;SDS011;5382;42.136;24.796;2022-11-14T13:07:58;15.13;;;13.65;;
10667;SDS011;5382;42.136;24.796;2022-11-14T13:10:37;29.80;;;26.88;;
10667;SDS011;5382;42.136;24.796;2022-11-14T13:13:05;15.93;;;14.20;;
10667;SDS011;5382;42.136;24.796;2022-11-14T13:15:51;15.52;;;14.00;;
10667;SDS011;5382;42.136;24.796;2022-11-14T13:18:48;15.55;;;13.70;;
10667;SDS011;5382;42.136;24.796;2022-11-14T13:21:35;15.93;;;14.38;;
10667;SDS011;5382;42.136;24.796;2022-11-14T13:24:12;14.63;;;13.32;;
10667;SDS011;5382;42.136;24.796;2022-11-14T13:26:46;15.82;;;14.32;;
10667;SDS011;5382;42.136;24.796;2022-11-14T13:35:36;15.65;;;13.32;;
10667;SDS011;5382;42.136;24.796;2022-11-14T13:51:00;19.92;;;17.75;;
10667;SDS011;5382;42.136;24.796;2022-11-14T13:53:30;16.80;;;15.07;;
10667;SDS011;5382;42.136;24.796;2022-11-14T13:56:04;17.90;;;15.20;;
10667;SDS011;5382;42.136;24.796;2022-11-14T13:58:48;19.35;;;16.70;;
10667;SDS011;5382;42.136;24.796;2022-11-14T14:01:46;17.88;;;15.68;;
10667;SDS011;5382;42.136;24.796;2022-11-14T14:04:32;18.02;;;15.98;;
10667;SDS011;5382;42.136;24.796;2022-11-14T14:07:12;17.75;;;15.95;;
10667;SDS011;5382;42.136;24.796;2022-11-14T14:09:48;17.55;;;15.85;;
10667;SDS011;5382;42.136;24.796;2022-11-14T14:12:26;17.35;;;15.73;;
10667;SDS011;5382;42.136;24.796;2022-11-14T14:15:07;20.63;;;16.33;;
10667;SDS011;5382;42.136;24.796;2022-11-14T14:17:51;17.95;;;16.25;;
10667;SDS011;5382;42.136;24.796;2022-11-14T14:20:29;18.90;;;16.92;;
10667;SDS011;5382;42.136;24.796;2022-11-14T14:23:03;23.45;;;18.42;;
10667;SDS011;5382;42.136;24.796;2022-11-14T14:25:44;19.60;;;17.58;;
10667;SDS011;5382;42.136;24.796;2022-11-14T14:28:18;21.73;;;18.42;;
10667;SDS011;5382;42.136;24.796;2022-11-14T14:31:01;22.83;;;18.17;;
10667;SDS011;5382;42.136;24.796;2022-11-14T14:33:39;22.40;;;19.27;;
10667;SDS011;5382;42.136;24.796;2022-11-14T14:36:15;20.45;;;18.10;;
10667;SDS011;5382;42.136;24.796;2022-11-14T14:38:43;21.45;;;18.17;;
10667;SDS011;5382;42.136;24.796;2022-11-14T14:41:10;31.75;;;18.42;;
10667;SDS011;5382;42.136;24.796;2022-11-14T14:43:39;20.33;;;17.73;;
10667;SDS011;5382;42.136;24.796;2022-11-14T14:46:08;20.98;;;17.75;;
10667;SDS011;5382;42.136;24.796;2022-11-14T14:48:37;22.15;;;17.88;;
10667;SDS011;5382;42.136;24.796;2022-11-14T14:51:09;24.40;;;19.17;;
10667;SDS011;5382;42.136;24.796;2022-11-14T14:53:39;23.98;;;18.30;;
10667;SDS011;5382;42.136;24.796;2022-11-14T14:56:18;21.15;;;18.27;;
10667;SDS011;5382;42.136;24.796;2022-11-14T14:58:46;22.70;;;16.17;;
10667;SDS011;5382;42.136;24.796;2022-11-14T15:01:15;19.92;;;17.58;;
10667;SDS011;5382;42.136;24.796;2022-11-14T15:03:45;21.08;;;18.40;;
10667;SDS011;5382;42.136;24.796;2022-11-14T15:06:20;23.60;;;18.65;;
10667;SDS011;5382;42.136;24.796;2022-11-14T15:08:54;22.27;;;15.27;;